Time;durP1;ratioP1;P1;durP2;ratioP2;P2;SDS_P1;SDS_P2;PMS_P1;PMS_P2;Temp;Humidity;BMP_temperature;BMP_pressure;BME280_temperature;BME280_humidity;BME280_pressure;Samples;Min_cycle;Max_cycle;Signal;HPM_P1;HPM_P2
2023/03/28 00:01:58;;;;;;;3.70;2.40;;;2.70;99.90;;;;;;5038928;28;20281;-36
2023/03/28 00:04:25;;;;;;;3.53;2.40;;;2.80;99.90;;;;;;5030095;28;20217;-39
2023/03/28 00:06:52;;;;;;;3.03;2.67;;;2.70;99.90;;;;;;5032461;28;20209;-36
2023/03/28 00:09:19;;;;;;;3.17;2.67;;;2.70;99.90;;;;;;5016833;28;20415;-37
2023/03/28 00:11:45;;;;;;;4.77;2.50;;;2.70;99.90;;;;;;5011171;28;20186;-39
2023/03/28 00:14:13;;;;;;;3.50;2.50;;;2.60;99.90;;;;;;5022666;28;20203;-34
2023/03/28 00:16:44;;;;;;;3.90;2.63;;;2.60;99.90;;;;;;5044446;28;20198;-37
2023/03/28 00:19:14;;;;;;;3.27;2.70;;;2.60;99.90;;;;;;5047065;28;20216;-39
2023/03/28 00:21:45;;;;;;;3.27;2.90;;;2.40;99.90;;;;;;5018015;28;20289;-39
2023/03/28 00:24:13;;;;;;;3.57;2.73;;;2.50;99.90;;;;;;5026560;28;20228;-42
2023/03/28 00:26:41;;;;;;;3.43;2.83;;;2.60;99.90;;;;;;5028888;28;20178;-41
2023/03/28 00:29:09;;;;;;;3.67;2.80;;;2.60;99.90;;;;;;5030157;28;20182;-39
2023/03/28 00:31:38;;;;;;;5.67;2.80;;;2.70;99.90;;;;;;5026710;28;20329;-41
2023/03/28 00:34:05;;;;;;;4.53;2.87;;;2.70;99.90;;;;;;5027360;28;20209;-41
2023/03/28 00:36:32;;;;;;;3.53;2.43;;;2.70;99.90;;;;;;5031553;28;20196;-41
2023/03/28 00:39:00;;;;;;;4.07;3.10;;;2.70;99.90;;;;;;5013296;28;20194;-41
2023/03/28 00:41:31;;;;;;;3.73;3.30;;;2.70;99.90;;;;;;5012947;28;20179;-39
2023/03/28 00:43:57;;;;;;;5.03;3.67;;;2.60;99.90;;;;;;5016482;28;20214;-38
2023/03/28 00:46:35;;;;;;;4.47;3.40;;;2.60;99.90;;;;;;5014016;28;20187;-41
2023/03/28 00:49:11;;;;;;;6.07;3.53;;;2.50;99.90;;;;;;5012866;28;20205;-40
2023/03/28 00:51:43;;;;;;;3.40;3.03;;;2.50;99.90;;;;;;5024050;28;20221;-41
2023/03/28 00:54:13;;;;;;;3.50;3.20;;;2.40;99.90;;;;;;5039770;28;20217;-42
2023/03/28 00:56:42;;;;;;;7.63;3.80;;;2.30;99.90;;;;;;5044198;28;20236;-38
2023/03/28 00:59:13;;;;;;;4.67;3.83;;;2.30;99.90;;;;;;5031063;28;20171;-40
2023/03/28 01:01:39;;;;;;;6.40;3.50;;;2.30;99.90;;;;;;5034195;28;20728;-41
2023/03/28 01:04:08;;;;;;;5.10;3.90;;;2.30;99.90;;;;;;5042476;28;20329;-41
2023/03/28 01:06:53;;;;;;;5.70;3.90;;;2.20;99.90;;;;;;5010155;28;20213;-40
2023/03/28 01:09:20;;;;;;;5.60;4.13;;;2.30;99.90;;;;;;5011046;28;20213;-40
2023/03/28 01:11:50;;;;;;;5.50;4.30;;;2.30;99.90;;;;;;5011550;28;20188;-41
2023/03/28 01:14:20;;;;;;;6.10;4.10;;;2.30;99.90;;;;;;5026870;28;20714;-41
2023/03/28 01:16:46;;;;;;;4.53;4.03;;;2.30;99.90;;;;;;5044908;28;20190;-38
2023/03/28 01:19:30;;;;;;;5.53;4.07;;;2.30;99.90;;;;;;5012382;28;20274;-41
2023/03/28 01:22:14;;;;;;;4.23;3.80;;;2.30;99.90;;;;;;5036439;28;20185;-40
2023/03/28 01:25:02;;;;;;;5.10;4.40;;;2.30;99.90;;;;;;5044044;28;20206;-39
2023/03/28 01:27:50;;;;;;;7.20;4.43;;;2.30;99.90;;;;;;5028529;28;20536;-41
2023/03/28 01:30:35;;;;;;;5.73;4.63;;;2.40;99.90;;;;;;4994956;28;20221;-40
2023/03/28 01:33:44;;;;;;;5.93;4.20;;;2.50;99.90;;;;;;5041052;28;20202;-41
2023/03/28 01:36:27;;;;;;;5.53;4.20;;;2.40;99.90;;;;;;5029030;28;20216;-41
2023/03/28 01:39:03;;;;;;;5.30;4.43;;;2.40;99.90;;;;;;5028908;28;20185;-41
2023/03/28 01:41:48;;;;;;;5.33;4.17;;;2.40;99.90;;;;;;5040059;28;20220;-41
2023/03/28 01:44:31;;;;;;;7.37;4.70;;;2.30;99.90;;;;;;5045178;28;20210;-40
2023/03/28 01:47:17;;;;;;;4.60;4.17;;;2.30;99.90;;;;;;4992966;28;20651;-40
2023/03/28 01:49:46;;;;;;;6.07;4.70;;;2.30;99.90;;;;;;4993590;28;20183;-41
2023/03/28 01:52:17;;;;;;;6.13;4.23;;;2.20;99.90;;;;;;5020626;28;20228;-41
2023/03/28 01:54:55;;;;;;;5.57;4.47;;;2.20;99.90;;;;;;5028410;28;20272;-41
2023/03/28 01:57:51;;;;;;;6.13;4.40;;;2.20;99.90;;;;;;5043344;28;20190;-41
2023/03/28 02:00:33;;;;;;;6.53;4.67;;;2.10;99.90;;;;;;5015651;28;20179;-40
2023/03/28 02:03:21;;;;;;;6.40;5.20;;;2.10;99.90;;;;;;5018120;28;20624;-40
2023/03/28 02:06:14;;;;;;;5.30;4.10;;;2.10;99.90;;;;;;5031843;28;20221;-35
2023/03/28 02:08:43;;;;;;;5.80;4.90;;;2.20;99.90;;;;;;5032944;28;20236;-39
2023/03/28 02:11:17;;;;;;;5.07;3.87;;;2.20;99.90;;;;;;5028601;28;20179;-36
2023/03/28 02:14:03;;;;;;;5.73;4.17;;;2.20;99.90;;;;;;5014645;28;20201;-38
2023/03/28 02:16:53;;;;;;;4.97;3.97;;;2.10;99.90;;;;;;5022111;28;20318;-37
2023/03/28 02:19:37;;;;;;;5.80;4.47;;;2.20;99.90;;;;;;5013412;28;20185;-35
2023/03/28 02:22:36;;;;;;;6.30;4.53;;;2.10;99.90;;;;;;5030594;28;20214;-38
2023/03/28 02:25:22;;;;;;;5.13;4.63;;;2.10;99.90;;;;;;5016657;28;20217;-36
2023/03/28 02:28:01;;;;;;;5.83;4.40;;;1.90;99.90;;;;;;5031840;28;20179;-37
2023/03/28 02:30:50;;;;;;;6.07;4.83;;;1.80;99.90;;;;;;5012224;28;20182;-39
2023/03/28 02:33:40;;;;;;;5.70;4.63;;;1.60;99.90;;;;;;5002500;28;20205;-36
2023/03/28 02:36:37;;;;;;;5.83;4.60;;;1.60;99.90;;;;;;5032518;28;20300;-39
2023/03/28 02:39:28;;;;;;;6.97;4.30;;;1.50;99.90;;;;;;5032921;28;20319;-39
2023/03/28 02:42:35;;;;;;;5.73;4.90;;;1.50;99.90;;;;;;5047704;28;20181;-39
2023/03/28 02:45:22;;;;;;;5.60;4.23;;;1.40;99.90;;;;;;5031213;28;20236;-40
2023/03/28 02:48:05;;;;;;;6.63;4.93;;;1.40;99.90;;;;;;5031811;28;20306;-38
2023/03/28 02:50:31;;;;;;;5.70;4.63;;;1.50;99.90;;;;;;5032281;28;20181;-39
2023/03/28 02:53:08;;;;;;;7.63;4.97;;;1.40;99.90;;;;;;5031437;28;20269;-37
2023/03/28 02:55:38;;;;;;;6.23;4.50;;;1.50;99.90;;;;;;5024122;28;20176;-39
2023/03/28 02:58:22;;;;;;;6.17;4.77;;;1.50;99.90;;;;;;5032002;28;20177;-41
2023/03/28 03:00:48;;;;;;;7.60;4.70;;;1.60;99.90;;;;;;5015897;28;20269;-39
2023/03/28 03:03:15;;;;;;;6.30;4.50;;;1.50;99.90;;;;;;5045110;28;20211;-41
2023/03/28 03:05:41;;;;;;;6.30;4.23;;;1.60;99.90;;;;;;5012318;28;20179;-41
2023/03/28 03:08:07;;;;;;;6.20;3.93;;;1.50;99.90;;;;;;5012471;28;20237;-40
2023/03/28 03:10:34;;;;;;;5.50;4.03;;;1.50;99.90;;;;;;5012454;28;20206;-41
2023/03/28 03:13:00;;;;;;;6.57;3.67;;;1.40;99.90;;;;;;5014564;28;20213;-41
2023/03/28 03:15:29;;;;;;;6.70;3.80;;;1.40;99.90;;;;;;5028261;28;20206;-40
2023/03/28 03:17:59;;;;;;;4.63;3.60;;;1.40;99.90;;;;;;5032941;28;20230;-41
2023/03/28 03:20:32;;;;;;;7.30;4.27;;;1.30;99.90;;;;;;5031968;28;20181;-36
2023/03/28 03:23:01;;;;;;;6.23;4.27;;;1.10;99.90;;;;;;5047783;28;20227;-41
2023/03/28 03:25:30;;;;;;;5.37;4.60;;;1.00;99.90;;;;;;5030913;28;20180;-39
2023/03/28 03:28:07;;;;;;;7.77;5.10;;;1.00;99.90;;;;;;5032378;28;20177;-40
2023/03/28 03:30:33;;;;;;;6.30;4.90;;;1.00;99.90;;;;;;5026416;28;20178;-39
2023/03/28 03:33:31;;;;;;;7.57;5.37;;;1.00;99.90;;;;;;5015744;28;20530;-40
2023/03/28 03:36:04;;;;;;;7.63;5.10;;;1.00;99.90;;;;;;5041841;28;20250;-40
2023/03/28 03:38:30;;;;;;;6.30;4.67;;;1.00;99.90;;;;;;5028897;28;20184;-40
2023/03/28 03:40:56;;;;;;;6.27;4.83;;;0.90;99.90;;;;;;5028981;28;20192;-36
2023/03/28 03:43:23;;;;;;;5.33;4.30;;;0.90;99.90;;;;;;5029616;28;20204;-40
2023/03/28 03:45:48;;;;;;;6.17;4.73;;;0.80;99.90;;;;;;5034798;28;20185;-40
2023/03/28 03:48:14;;;;;;;5.93;5.00;;;0.80;99.90;;;;;;5031841;28;20175;-41
2023/03/28 03:50:40;;;;;;;7.57;5.00;;;0.80;99.90;;;;;;5029009;28;20179;-39
2023/03/28 03:53:12;;;;;;;7.20;5.17;;;0.80;99.90;;;;;;5014409;28;20195;-41
2023/03/28 03:55:48;;;;;;;7.73;4.50;;;0.80;99.90;;;;;;5029866;28;20229;-40
2023/03/28 03:58:14;;;;;;;6.43;4.33;;;0.80;99.90;;;;;;5028599;28;20179;-40
2023/03/28 04:00:43;;;;;;;6.70;4.63;;;0.80;99.90;;;;;;5043895;28;20179;-38
2023/03/28 04:03:25;;;;;;;6.87;5.33;;;0.70;99.90;;;;;;5029838;28;20239;-40
2023/03/28 04:05:53;;;;;;;7.63;5.10;;;0.70;99.90;;;;;;5015657;28;20182;-41
2023/03/28 04:08:21;;;;;;;24.07;12.63;;;0.70;99.90;;;;;;5027604;28;20240;-39
2023/03/28 04:10:47;;;;;;;13.17;7.30;;;0.60;99.90;;;;;;5027878;28;20173;-40
2023/03/28 04:13:14;;;;;;;7.33;5.83;;;0.60;99.90;;;;;;5021346;28;20222;-40
2023/03/28 04:15:40;;;;;;;6.00;5.13;;;0.60;99.90;;;;;;5014400;28;20212;-39
2023/03/28 04:18:49;;;;;;;4.90;4.27;;;0.50;99.90;;;;;;5013325;28;20173;-40
2023/03/28 04:21:19;;;;;;;5.80;4.53;;;0.40;99.90;;;;;;5029772;28;20184;-41
2023/03/28 04:23:47;;;;;;;7.97;5.20;;;0.30;99.90;;;;;;5038444;28;20208;-40
2023/03/28 04:26:34;;;;;;;6.80;5.37;;;0.30;99.90;;;;;;5025342;28;20321;-40
2023/03/28 04:29:04;;;;;;;7.23;4.73;;;0.30;99.90;;;;;;5011189;28;20275;-39
2023/03/28 04:31:34;;;;;;;7.10;3.57;;;0.30;99.90;;;;;;5027814;28;20185;-40
2023/03/28 04:34:09;;;;;;;6.97;4.07;;;0.20;99.90;;;;;;5023154;28;20208;-38
2023/03/28 04:36:45;;;;;;;6.20;4.00;;;0.20;99.90;;;;;;5011074;28;20183;-40
2023/03/28 04:39:12;;;;;;;7.47;4.53;;;0.20;99.90;;;;;;5010625;28;20191;-36
2023/03/28 04:42:00;;;;;;;7.53;3.90;;;0.10;99.90;;;;;;5010554;28;20179;-38
2023/03/28 04:44:46;;;;;;;5.23;3.70;;;0.20;99.90;;;;;;5018845;28;20301;-38
2023/03/28 04:47:13;;;;;;;4.33;3.33;;;0.20;99.90;;;;;;5028531;28;20184;-37
2023/03/28 04:49:39;;;;;;;9.10;6.07;;;0.20;99.90;;;;;;5028600;28;20187;-36
2023/03/28 04:52:05;;;;;;;8.80;4.83;;;0.20;99.90;;;;;;5043239;28;20645;-40
2023/03/28 04:54:31;;;;;;;8.17;5.30;;;0.20;99.90;;;;;;5022112;28;20302;-39
2023/03/28 04:57:05;;;;;;;9.47;5.40;;;0.20;99.90;;;;;;5028110;28;20218;-40
2023/03/28 04:59:39;;;;;;;14.33;9.43;;;0.30;99.90;;;;;;5014885;28;20278;-39
2023/03/28 05:02:05;;;;;;;11.90;7.13;;;0.20;99.90;;;;;;5027667;28;20270;-40
2023/03/28 05:04:30;;;;;;;7.87;5.40;;;0.20;99.90;;;;;;5052688;28;20212;-37
2023/03/28 05:07:02;;;;;;;7.33;4.40;;;0.20;99.90;;;;;;5013419;28;20310;-35
2023/03/28 05:09:29;;;;;;;6.37;3.63;;;0.20;99.90;;;;;;5010325;28;20255;-36
2023/03/28 05:11:55;;;;;;;5.60;3.93;;;0.10;99.90;;;;;;5010218;28;20234;-40
2023/03/28 05:14:21;;;;;;;4.77;4.17;;;0.00;99.90;;;;;;5027158;28;20572;-38
2023/03/28 05:16:51;;;;;;;5.87;4.30;;;-0.10;99.90;;;;;;5010160;28;20187;-39
2023/03/28 05:19:41;;;;;;;6.23;4.37;;;-0.20;99.90;;;;;;5015044;28;20182;-39
2023/03/28 05:22:15;;;;;;;5.70;3.87;;;-0.30;99.90;;;;;;5029398;28;20261;-39
2023/03/28 05:24:42;;;;;;;5.67;4.20;;;-0.30;99.90;;;;;;5037443;28;20213;-39
2023/03/28 05:27:16;;;;;;;5.57;4.50;;;-0.30;99.90;;;;;;5032177;28;20209;-36
2023/03/28 05:29:42;;;;;;;7.20;4.80;;;-0.40;99.90;;;;;;5028986;28;20189;-39
2023/03/28 05:32:08;;;;;;;10.27;5.00;;;-0.40;99.90;;;;;;5029454;28;20178;-39
2023/03/28 05:34:35;;;;;;;6.57;5.10;;;-0.50;99.90;;;;;;5011823;28;20194;-40
2023/03/28 05:37:02;;;;;;;6.50;4.80;;;-0.50;99.90;;;;;;5046099;28;20187;-39
2023/03/28 05:39:33;;;;;;;8.03;5.17;;;-0.40;99.90;;;;;;5023917;28;20216;-38
2023/03/28 05:42:03;;;;;;;7.93;5.13;;;-0.40;99.90;;;;;;5049474;28;20178;-39
2023/03/28 05:44:29;;;;;;;6.70;5.50;;;-0.30;99.90;;;;;;5022130;28;20218;-40
2023/03/28 05:47:24;;;;;;;8.13;5.27;;;-0.20;99.90;;;;;;5020947;28;20206;-41
2023/03/28 05:49:51;;;;;;;8.20;5.47;;;-0.10;99.90;;;;;;5016688;28;20182;-36
2023/03/28 05:52:16;;;;;;;9.53;6.70;;;0.00;99.90;;;;;;5033744;28;20176;-39
2023/03/28 05:54:45;;;;;;;7.80;5.80;;;0.10;99.90;;;;;;5016844;28;20214;-41
2023/03/28 05:57:15;;;;;;;8.03;6.13;;;0.10;99.90;;;;;;5035917;28;20191;-40
2023/03/28 05:59:41;;;;;;;9.13;6.70;;;0.20;99.90;;;;;;5049251;28;20263;-40
2023/03/28 06:02:14;;;;;;;9.03;7.03;;;0.30;99.90;;;;;;5032910;28;20187;-36
2023/03/28 06:04:43;;;;;;;7.70;6.27;;;0.30;99.90;;;;;;5032796;28;20214;-40
2023/03/28 06:07:12;;;;;;;14.90;9.50;;;0.40;99.90;;;;;;5033279;28;20667;-40
2023/03/28 06:09:39;;;;;;;17.07;9.77;;;0.50;99.90;;;;;;5049624;28;20187;-37
2023/03/28 06:12:06;;;;;;;12.27;9.07;;;0.60;99.90;;;;;;5034340;28;20186;-40
2023/03/28 06:14:35;;;;;;;11.47;8.33;;;0.70;99.90;;;;;;5049459;28;20212;-39
2023/03/28 06:17:06;;;;;;;10.00;7.70;;;0.80;99.90;;;;;;5049830;28;20261;-41
2023/03/28 06:19:40;;;;;;;9.23;6.03;;;1.00;99.90;;;;;;5033265;28;20178;-40
2023/03/28 06:22:06;;;;;;;8.50;6.20;;;1.10;99.90;;;;;;5032765;28;20280;-40
2023/03/28 06:24:32;;;;;;;8.30;5.87;;;1.20;99.90;;;;;;5032340;28;20211;-41
2023/03/28 06:26:59;;;;;;;10.07;7.07;;;1.30;99.90;;;;;;5049059;28;20178;-41
2023/03/28 06:29:25;;;;;;;13.47;10.30;;;1.40;99.90;;;;;;5049460;28;20188;-40
2023/03/28 06:31:59;;;;;;;13.27;9.40;;;1.50;99.90;;;;;;5032170;28;20181;-33
2023/03/28 06:34:25;;;;;;;35.37;21.97;;;1.60;99.90;;;;;;5032171;28;20201;-36
2023/03/28 06:36:56;;;;;;;26.10;15.67;;;1.60;99.90;;;;;;5032709;28;20266;-37
2023/03/28 06:39:26;;;;;;;14.90;10.17;;;1.70;99.90;;;;;;5032835;28;20192;-37
2023/03/28 06:41:55;;;;;;;10.97;7.37;;;1.80;99.90;;;;;;5032692;28;20264;-35
2023/03/28 06:44:29;;;;;;;9.43;7.20;;;1.90;99.90;;;;;;5032285;28;20248;-36
2023/03/28 06:47:18;;;;;;;8.10;6.50;;;1.90;99.90;;;;;;5028003;28;20192;-38
2023/03/28 06:49:45;;;;;;;8.87;6.93;;;2.00;99.90;;;;;;5032434;28;20178;-34
2023/03/28 06:52:28;;;;;;;10.07;6.77;;;2.10;99.90;;;;;;5032221;28;20178;-35
2023/03/28 06:54:55;;;;;;;9.43;6.43;;;2.20;99.90;;;;;;5031827;28;20236;-37
2023/03/28 06:57:20;;;;;;;7.80;6.47;;;2.30;99.90;;;;;;5017637;28;20224;-33
2023/03/28 06:59:48;;;;;;;8.57;6.17;;;2.40;99.90;;;;;;5032136;28;20209;-35
2023/03/28 07:02:20;;;;;;;8.30;6.80;;;2.50;99.90;;;;;;5032537;28;20194;-36
2023/03/28 07:04:47;;;;;;;7.63;6.10;;;2.60;99.90;;;;;;5015417;28;20209;-39
2023/03/28 07:07:13;;;;;;;10.37;7.40;;;2.70;99.90;;;;;;5022271;28;20235;-34
2023/03/28 07:09:41;;;;;;;10.43;6.97;;;2.80;99.90;;;;;;5023643;28;20534;-37
2023/03/28 07:12:10;;;;;;;9.40;6.60;;;2.80;99.90;;;;;;5031961;28;20183;-39
2023/03/28 07:14:39;;;;;;;8.23;6.53;;;3.00;99.90;;;;;;5042349;28;20206;-36
2023/03/28 07:17:06;;;;;;;8.40;6.63;;;3.10;99.90;;;;;;5044184;28;20208;-34
2023/03/28 07:19:31;;;;;;;8.57;6.90;;;3.20;99.90;;;;;;5059768;28;20206;-41
2023/03/28 07:21:58;;;;;;;11.50;7.03;;;3.20;99.90;;;;;;5045024;28;20181;-38
2023/03/28 07:24:24;;;;;;;6.93;6.20;;;3.30;99.90;;;;;;5042495;28;20212;-39
2023/03/28 07:27:05;;;;;;;8.97;6.23;;;3.40;99.90;;;;;;5045134;28;20225;-37
2023/03/28 07:29:31;;;;;;;9.57;6.43;;;3.50;99.90;;;;;;5026917;28;20170;-39
2023/03/28 07:31:57;;;;;;;10.97;7.40;;;3.50;99.90;;;;;;5030435;28;20651;-37
2023/03/28 07:34:24;;;;;;;11.13;6.60;;;3.60;99.90;;;;;;5061070;28;20209;-38
2023/03/28 07:36:50;;;;;;;8.80;6.70;;;3.60;99.90;;;;;;5041000;28;20193;-39
2023/03/28 07:39:31;;;;;;;8.87;6.30;;;3.80;99.90;;;;;;5024889;28;20214;-37
2023/03/28 07:42:01;;;;;;;8.07;6.40;;;3.80;99.90;;;;;;5027049;28;20655;-37
2023/03/28 07:44:27;;;;;;;7.13;5.80;;;3.80;99.90;;;;;;5037412;28;20199;-36
2023/03/28 07:46:53;;;;;;;8.87;6.67;;;4.00;99.90;;;;;;5052969;28;20175;-37
2023/03/28 07:49:20;;;;;;;10.17;6.70;;;4.00;99.90;;;;;;5032140;28;20202;-36
2023/03/28 07:51:51;;;;;;;9.40;6.20;;;4.10;99.90;;;;;;5037541;28;20174;-37
2023/03/28 07:54:17;;;;;;;8.53;6.57;;;4.20;99.90;;;;;;5046122;28;20300;-36
2023/03/28 07:56:45;;;;;;;10.47;6.77;;;4.40;99.90;;;;;;5029666;28;20179;-36
2023/03/28 07:59:26;;;;;;;9.67;6.67;;;4.50;99.90;;;;;;5037594;28;20276;-38
2023/03/28 08:01:52;;;;;;;8.30;5.93;;;4.50;99.90;;;;;;5039561;28;20190;-39
2023/03/28 08:04:18;;;;;;;10.33;6.63;;;4.60;99.90;;;;;;5031122;28;20209;-39
2023/03/28 08:06:56;;;;;;;8.77;6.10;;;4.70;99.90;;;;;;5031042;28;20183;-42
2023/03/28 08:09:22;;;;;;;8.07;5.77;;;4.90;99.90;;;;;;5045776;28;20171;-39
2023/03/28 08:11:59;;;;;;;8.40;5.30;;;5.00;99.90;;;;;;5045241;28;20667;-41
2023/03/28 08:14:25;;;;;;;11.47;6.10;;;5.20;99.90;;;;;;5045563;28;20237;-41
2023/03/28 08:16:50;;;;;;;9.60;5.23;;;5.20;99.90;;;;;;5029776;28;20206;-41
2023/03/28 08:19:17;;;;;;;8.60;5.07;;;5.40;99.90;;;;;;5030055;28;20212;-41
2023/03/28 08:22:01;;;;;;;7.13;4.10;;;5.60;99.90;;;;;;5032095;28;20665;-41
2023/03/28 08:24:28;;;;;;;6.10;3.87;;;5.70;99.90;;;;;;5013726;28;20216;-41
2023/03/28 08:26:58;;;;;;;7.60;3.80;;;5.70;99.90;;;;;;5037720;28;20295;-42
2023/03/28 08:29:24;;;;;;;8.20;3.70;;;5.90;99.90;;;;;;5015275;28;20191;-43
2023/03/28 08:31:50;;;;;;;5.63;3.57;;;6.10;99.90;;;;;;5047044;28;20180;-42
2023/03/28 08:34:16;;;;;;;4.70;2.70;;;6.30;99.90;;;;;;5047096;28;20211;-42
2023/03/28 08:36:43;;;;;;;5.67;2.97;;;6.40;99.90;;;;;;5030663;28;20641;-42
2023/03/28 08:39:22;;;;;;;6.77;3.20;;;6.50;99.90;;;;;;5046976;28;20185;-42
2023/03/28 08:42:18;;;;;;;5.17;2.50;;;6.30;99.90;;;;;;5013774;28;20653;-42
2023/03/28 08:45:23;;;;;;;6.03;2.77;;;6.40;99.90;;;;;;5030316;28;20217;-41
2023/03/28 08:48:03;;;;;;;7.13;2.90;;;6.30;99.90;;;;;;5031612;28;20176;-41
2023/03/28 08:50:33;;;;;;;4.70;2.67;;;6.40;99.90;;;;;;5030246;28;20180;-40
2023/03/28 08:53:01;;;;;;;6.20;2.53;;;6.50;99.90;;;;;;5046702;28;20230;-42
2023/03/28 08:55:34;;;;;;;3.63;2.67;;;6.70;99.90;;;;;;5029933;28;20181;-42
2023/03/28 08:58:00;;;;;;;4.13;3.03;;;6.90;99.90;;;;;;5029949;28;20186;-42
2023/03/28 09:00:36;;;;;;;5.27;3.00;;;6.90;99.90;;;;;;5029970;28;20268;-40
2023/03/28 09:03:10;;;;;;;4.93;2.77;;;7.00;99.90;;;;;;5029988;28;20188;-41
2023/03/28 09:05:48;;;;;;;7.90;3.07;;;7.00;99.90;;;;;;5029472;28;20275;-42
2023/03/28 09:08:43;;;;;;;5.77;2.80;;;7.30;99.90;;;;;;5034999;28;20172;-41
2023/03/28 09:11:21;;;;;;;6.43;2.80;;;7.50;99.90;;;;;;5015292;28;20182;-40
2023/03/28 09:14:13;;;;;;;5.50;2.53;;;7.70;99.90;;;;;;5026151;28;20196;-40
2023/03/28 09:17:30;;;;;;;3.47;2.40;;;7.60;99.90;;;;;;5056159;28;20251;-41
2023/03/28 09:20:21;;;;;;;3.90;2.47;;;7.50;99.90;;;;;;5003911;28;20197;-41
2023/03/28 09:23:24;;;;;;;4.40;2.47;;;7.10;99.90;;;;;;5031596;28;20279;-41
2023/03/28 09:26:16;;;;;;;4.40;2.27;;;6.60;99.90;;;;;;5033348;28;20322;-42
2023/03/28 09:29:01;;;;;;;5.13;3.00;;;6.30;99.90;;;;;;5054897;28;20169;-43
2023/03/28 09:31:34;;;;;;;5.30;2.30;;;6.30;99.90;;;;;;5036632;28;20179;-42
2023/03/28 09:34:02;;;;;;;3.47;2.17;;;6.40;99.90;;;;;;5033849;28;20224;-41
2023/03/28 09:36:43;;;;;;;4.63;2.40;;;6.40;99.90;;;;;;5037247;28;20179;-41
2023/03/28 09:39:33;;;;;;;3.73;2.13;;;6.50;99.90;;;;;;5042534;28;20197;-41
2023/03/28 09:42:38;;;;;;;4.17;2.10;;;6.60;99.90;;;;;;5051821;28;20197;-41
2023/03/28 09:45:34;;;;;;;6.13;2.40;;;6.90;99.90;;;;;;5043456;28;20205;-41
2023/03/28 09:48:29;;;;;;;3.57;2.00;;;7.00;99.90;;;;;;5034112;28;20274;-39
2023/03/28 09:50:59;;;;;;;6.10;2.27;;;6.70;99.90;;;;;;5037296;28;20180;-40
2023/03/28 09:53:28;;;;;;;4.57;2.17;;;6.60;99.90;;;;;;5052205;28;20220;-41
2023/03/28 09:55:58;;;;;;;4.60;2.40;;;6.40;99.90;;;;;;5037600;28;20275;-42
2023/03/28 09:58:24;;;;;;;4.10;2.40;;;6.20;99.90;;;;;;5034050;28;20197;-41
2023/03/28 10:01:30;;;;;;;3.60;2.33;;;6.30;99.90;;;;;;5035393;28;20237;-41
2023/03/28 10:04:29;;;;;;;5.27;2.00;;;6.40;99.90;;;;;;5047368;28;20751;-41
2023/03/28 10:07:42;;;;;;;4.97;2.07;;;6.30;99.90;;;;;;5046152;28;20187;-42
2023/03/28 10:10:23;;;;;;;2.60;2.00;;;6.60;99.90;;;;;;5041165;28;20185;-40
2023/03/28 10:13:02;;;;;;;3.40;2.00;;;6.90;99.90;;;;;;5039118;28;20192;-41
2023/03/28 10:15:38;;;;;;;3.80;1.70;;;7.30;99.90;;;;;;5033623;28;20530;-42
2023/03/28 10:18:26;;;;;;;3.43;1.47;;;7.50;99.90;;;;;;5034088;28;20670;-40
2023/03/28 10:21:16;;;;;;;4.20;2.33;;;7.60;99.90;;;;;;5030913;28;20205;-39
2023/03/28 10:24:01;;;;;;;3.57;1.53;;;7.80;99.90;;;;;;5040045;28;20205;-41
2023/03/28 10:26:29;;;;;;;3.37;1.97;;;7.90;99.90;;;;;;5035157;28;20197;-41
2023/03/28 10:29:00;;;;;;;3.47;2.27;;;8.00;99.90;;;;;;5036905;28;20221;-39
2023/03/28 10:31:30;;;;;;;4.83;1.80;;;7.90;99.90;;;;;;5042342;28;20180;-41
2023/03/28 10:34:27;;;;;;;5.43;2.07;;;8.10;99.90;;;;;;5039679;28;20203;-41
2023/03/28 10:37:30;;;;;;;3.33;2.07;;;8.30;99.90;;;;;;5046085;28;20182;-41
2023/03/28 10:40:17;;;;;;;1.80;1.30;;;8.40;99.90;;;;;;5043072;28;20711;-41
2023/03/28 10:42:50;;;;;;;3.27;1.40;;;8.50;99.90;;;;;;5055227;28;20170;-41
2023/03/28 10:45:49;;;;;;;2.10;1.77;;;8.70;99.90;;;;;;5021437;28;20190;-42
2023/03/28 10:48:25;;;;;;;3.10;1.50;;;8.90;99.90;;;;;;5029689;28;20277;-42
2023/03/28 10:50:57;;;;;;;3.13;1.80;;;8.90;99.90;;;;;;5045138;28;20269;-41
2023/03/28 10:53:43;;;;;;;4.50;1.80;;;8.90;99.90;;;;;;5014682;28;20210;-41
2023/03/28 10:56:33;;;;;;;4.97;1.80;;;9.10;99.90;;;;;;5027659;28;20187;-41
2023/03/28 10:59:13;;;;;;;4.00;1.97;;;9.20;99.90;;;;;;5017940;28;20183;-40
2023/03/28 11:02:17;;;;;;;2.43;1.63;;;9.20;99.90;;;;;;5033342;28;20182;-42
2023/03/28 11:05:02;;;;;;;4.60;2.10;;;9.30;99.90;;;;;;5015460;28;20213;-40
2023/03/28 11:07:38;;;;;;;2.83;1.80;;;9.50;99.90;;;;;;5032018;28;20175;-42
2023/03/28 11:10:38;;;;;;;3.47;1.70;;;9.60;99.90;;;;;;5039291;28;20203;-42
2023/03/28 11:13:16;;;;;;;3.40;1.70;;;9.50;99.90;;;;;;5035748;28;20182;-42
2023/03/28 11:16:13;;;;;;;4.43;1.97;;;9.40;99.90;;;;;;5037215;28;20178;-41
2023/03/28 11:19:09;;;;;;;4.53;1.97;;;9.50;99.90;;;;;;5031405;28;20232;-41
2023/03/28 11:22:04;;;;;;;2.47;1.73;;;9.60;99.90;;;;;;5031919;28;20206;-42
2023/03/28 11:24:41;;;;;;;3.60;1.70;;;9.60;99.90;;;;;;5046237;28;20313;-41
2023/03/28 11:27:40;;;;;;;4.23;2.10;;;9.30;99.90;;;;;;5028380;28;20694;-42
2023/03/28 11:30:21;;;;;;;4.20;2.03;;;9.30;99.90;;;;;;5027367;28;20178;-41
2023/03/28 11:33:23;;;;;;;3.00;1.87;;;9.50;99.90;;;;;;5036733;28;20209;-42
2023/03/28 11:36:06;;;;;;;1.90;1.70;;;9.90;99.90;;;;;;5039365;28;20223;-41
2023/03/28 11:38:41;;;;;;;3.70;1.67;;;10.10;99.90;;;;;;5029509;28;20195;-40
2023/03/28 11:41:18;;;;;;;2.50;1.73;;;9.90;99.90;;;;;;5043817;28;20201;-41
2023/03/28 11:44:14;;;;;;;3.47;1.80;;;9.80;99.90;;;;;;5014707;28;20218;-41
2023/03/28 11:46:57;;;;;;;3.63;1.70;;;10.00;99.90;;;;;;5011460;28;20179;-40
2023/03/28 11:50:00;;;;;;;2.77;1.67;;;9.90;99.90;;;;;;5036296;28;20175;-40
2023/03/28 11:53:07;;;;;;;3.07;1.77;;;9.90;99.90;;;;;;5011933;28;20193;-42
2023/03/28 11:56:03;;;;;;;3.80;1.57;;;10.10;99.90;;;;;;5050183;28;20354;-41
2023/03/28 11:59:35;;;;;;;2.67;1.60;;;9.80;99.90;;;;;;5029844;28;20674;-42
2023/03/28 12:02:26;;;;;;;3.37;2.00;;;9.70;99.90;;;;;;5022116;28;20761;-38
2023/03/28 12:04:59;;;;;;;2.40;1.80;;;9.80;99.90;;;;;;5037743;28;20218;-41
2023/03/28 12:07:35;;;;;;;4.90;1.70;;;9.80;99.90;;;;;;5047301;28;20179;-41
2023/03/28 12:10:28;;;;;;;3.63;1.50;;;9.60;99.90;;;;;;5029293;28;20175;-40
2023/03/28 12:13:21;;;;;;;4.13;1.77;;;9.60;99.90;;;;;;5019967;28;20628;-40
2023/03/28 12:16:19;;;;;;;2.53;1.50;;;9.60;99.90;;;;;;5028830;28;20193;-41
2023/03/28 12:18:50;;;;;;;4.63;1.60;;;9.80;99.90;;;;;;5046807;28;20175;-41
2023/03/28 12:21:44;;;;;;;5.17;1.70;;;10.10;99.90;;;;;;5017224;28;20171;-42
2023/03/28 12:24:34;;;;;;;2.70;1.60;;;10.20;99.90;;;;;;5034871;28;20202;-42
2023/03/28 12:27:25;;;;;;;3.80;1.67;;;10.20;99.90;;;;;;5029909;28;20179;-41
2023/03/28 12:30:04;;;;;;;2.17;1.77;;;10.10;99.90;;;;;;5023398;28;20175;-42
2023/03/28 12:32:57;;;;;;;3.97;1.70;;;10.20;99.90;;;;;;5033814;28;20177;-41
2023/03/28 12:35:41;;;;;;;3.43;1.57;;;10.50;99.90;;;;;;5036085;28;20180;-41
2023/03/28 12:38:47;;;;;;;4.37;1.80;;;10.80;99.90;;;;;;5033132;28;20251;-42
2023/03/28 12:41:27;;;;;;;1.43;1.33;;;10.80;99.90;;;;;;5052173;28;20200;-40
2023/03/28 12:44:01;;;;;;;2.80;1.80;;;10.80;99.90;;;;;;5038538;28;20245;-41
2023/03/28 12:46:45;;;;;;;4.70;2.00;;;10.80;99.90;;;;;;5044851;28;20261;-42
2023/03/28 12:49:44;;;;;;;2.87;1.40;;;11.10;99.90;;;;;;5019138;28;20199;-42
2023/03/28 12:52:29;;;;;;;2.60;1.73;;;11.00;99.90;;;;;;5033527;28;20191;-42
2023/03/28 12:55:03;;;;;;;2.03;1.80;;;11.00;99.90;;;;;;5021147;28;20203;-39
2023/03/28 12:57:39;;;;;;;5.40;1.87;;;11.20;99.90;;;;;;5024845;28;20187;-41
2023/03/28 13:00:13;;;;;;;2.57;1.40;;;11.30;99.90;;;;;;5026529;28;20190;-42
2023/03/28 13:03:32;;;;;;;6.47;2.70;;;11.50;99.90;;;;;;5026954;28;20203;-42
2023/03/28 13:06:05;;;;;;;3.90;2.07;;;11.60;99.90;;;;;;5054302;28;20188;-40
2023/03/28 13:09:09;;;;;;;5.57;2.00;;;11.80;99.90;;;;;;5038458;28;20206;-41
2023/03/28 13:12:13;;;;;;;2.20;1.90;;;11.50;99.90;;;;;;5038882;28;20178;-41
2023/03/28 13:14:41;;;;;;;2.70;1.73;;;11.60;99.90;;;;;;5035265;28;20192;-39
2023/03/28 13:17:23;;;;;;;3.20;1.90;;;11.70;99.90;;;;;;5030387;28;20198;-42
2023/03/28 13:19:53;;;;;;;3.33;1.60;;;12.10;99.90;;;;;;5033502;28;20218;-42
2023/03/28 13:22:31;;;;;;;4.20;1.93;;;12.10;99.90;;;;;;5029393;28;20188;-42
2023/03/28 13:25:24;;;;;;;3.33;1.90;;;12.20;99.90;;;;;;5028315;28;20255;-42
2023/03/28 13:27:59;;;;;;;2.53;1.93;;;12.40;99.90;;;;;;5020725;28;20181;-42
2023/03/28 13:30:30;;;;;;;4.57;1.97;;;12.30;99.90;;;;;;5034729;28;20222;-42
2023/03/28 13:33:06;;;;;;;2.73;1.73;;;12.20;99.90;;;;;;5037221;28;20181;-42
2023/03/28 13:36:12;;;;;;;3.20;1.93;;;12.60;99.90;;;;;;5037653;28;20264;-42
2023/03/28 13:38:59;;;;;;;5.13;2.03;;;12.70;99.90;;;;;;5000063;28;20190;-42
2023/03/28 13:41:40;;;;;;;3.97;1.90;;;12.50;99.90;;;;;;5029257;28;20194;-42
2023/03/28 13:44:13;;;;;;;3.97;2.10;;;12.70;99.90;;;;;;5033672;28;20201;-42
2023/03/28 13:46:41;;;;;;;3.70;1.90;;;12.70;99.90;;;;;;5059588;28;20186;-43
2023/03/28 13:49:20;;;;;;;4.33;1.90;;;12.40;99.90;;;;;;5043356;28;20193;-42